sensor_id;sensor_type;location;lat;lon;timestamp;pressure;altitude;pressure_sealevel;temperature;humidity
62510;BME280;48558;48.242;11.654;2023-05-25T00:01:53;96515.00;;;11.49;100.00
62510;BME280;48558;48.242;11.654;2023-05-25T00:06:15;96507.19;;;11.38;100.00
62510;BME280;48558;48.242;11.654;2023-05-25T00:10:29;96509.97;;;11.38;100.00
62510;BME280;48558;48.242;11.654;2023-05-25T00:14:41;96514.72;;;11.47;100.00
62510;BME280;48558;48.242;11.654;2023-05-25T00:18:54;96515.66;;;11.44;100.00
62510;BME280;48558;48.242;11.654;2023-05-25T00:23:08;96522.84;;;11.60;100.00
62510;BME280;48558;48.242;11.654;2023-05-25T00:27:21;96521.47;;;11.55;100.00
62510;BME280;48558;48.242;11.654;2023-05-25T00:31:34;96516.41;;;11.44;100.00
62510;BME280;48558;48.242;11.654;2023-05-25T00:35:48;96523.78;;;11.47;100.00
62510;BME280;48558;48.242;11.654;2023-05-25T00:40:00;96530.22;;;11.44;100.00
62510;BME280;48558;48.242;11.654;2023-05-25T00:44:14;96525.34;;;11.39;100.00
62510;BME280;48558;48.242;11.654;2023-05-25T00:48:27;96524.25;;;11.46;100.00
62510;BME280;48558;48.242;11.654;2023-05-25T00:52:39;96528.72;;;11.43;100.00
62510;BME280;48558;48.242;11.654;2023-05-25T00:57:00;96519.34;;;11.32;100.00
62510;BME280;48558;48.242;11.654;2023-05-25T01:01:15;96510.41;;;11.46;100.00
62510;BME280;48558;48.242;11.654;2023-05-25T01:05:28;96489.97;;;11.52;100.00
62510;BME280;48558;48.242;11.654;2023-05-25T01:09:57;96493.22;;;11.33;100.00
62510;BME280;48558;48.242;11.654;2023-05-25T01:14:11;96494.28;;;11.26;100.00
62510;BME280;48558;48.242;11.654;2023-05-25T01:18:24;96493.22;;;11.33;100.00
62510;BME280;48558;48.242;11.654;2023-05-25T01:22:44;96502.28;;;11.33;100.00
62510;BME280;48558;48.242;11.654;2023-05-25T01:31:44;96508.13;;;11.17;100.00
62510;BME280;48558;48.242;11.654;2023-05-25T01:35:58;96521.34;;;11.13;100.00
62510;BME280;48558;48.242;11.654;2023-05-25T01:40:21;96521.50;;;11.19;100.00
62510;BME280;48558;48.242;11.654;2023-05-25T01:44:35;96508.09;;;11.26;100.00
62510;BME280;48558;48.242;11.654;2023-05-25T01:49:12;96514.72;;;11.29;100.00
62510;BME280;48558;48.242;11.654;2023-05-25T01:53:36;96521.03;;;11.38;100.00
62510;BME280;48558;48.242;11.654;2023-05-25T02:02:35;96490.31;;;11.00;100.00
62510;BME280;48558;48.242;11.654;2023-05-25T02:06:51;96525.34;;;11.21;100.00
62510;BME280;48558;48.242;11.654;2023-05-25T02:11:03;96529.31;;;11.29;100.00
62510;BME280;48558;48.242;11.654;2023-05-25T02:15:17;96524.72;;;11.35;100.00
62510;BME280;48558;48.242;11.654;2023-05-25T02:19:30;96515.94;;;11.55;100.00
62510;BME280;48558;48.242;11.654;2023-05-25T02:23:42;96505.81;;;11.43;100.00
62510;BME280;48558;48.242;11.654;2023-05-25T02:27:55;96492.88;;;11.40;100.00
62510;BME280;48558;48.242;11.654;2023-05-25T02:32:07;96490.75;;;11.35;100.00
62510;BME280;48558;48.242;11.654;2023-05-25T02:36:20;96502.56;;;11.35;100.00
62510;BME280;48558;48.242;11.654;2023-05-25T02:40:33;96504.72;;;11.40;100.00
62510;BME280;48558;48.242;11.654;2023-05-25T02:44:45;96508.09;;;11.53;100.00
62510;BME280;48558;48.242;11.654;2023-05-25T02:48:59;96473.38;;;11.34;100.00
62510;BME280;48558;48.242;11.654;2023-05-25T02:53:22;96510.69;;;11.57;100.00
62510;BME280;48558;48.242;11.654;2023-05-25T02:57:34;96508.84;;;11.72;100.00
62510;BME280;48558;48.242;11.654;2023-05-25T03:01:49;96516.97;;;11.85;100.00
62510;BME280;48558;48.242;11.654;2023-05-25T03:06:02;96515.75;;;11.77;100.00
62510;BME280;48558;48.242;11.654;2023-05-25T03:10:15;96517.41;;;11.92;100.00
62510;BME280;48558;48.242;11.654;2023-05-25T03:14:27;96510.72;;;12.08;100.00
62510;BME280;48558;48.242;11.654;2023-05-25T03:18:40;96500.09;;;12.15;100.00
62510;BME280;48558;48.242;11.654;2023-05-25T03:22:54;96498.41;;;12.18;100.00
62510;BME280;48558;48.242;11.654;2023-05-25T03:27:07;96499.00;;;12.22;100.00
62510;BME280;48558;48.242;11.654;2023-05-25T03:31:19;96505.00;;;12.20;100.00
62510;BME280;48558;48.242;11.654;2023-05-25T03:35:32;96505.41;;;12.28;100.00
62510;BME280;48558;48.242;11.654;2023-05-25T03:39:54;96506.03;;;12.32;100.00
62510;BME280;48558;48.242;11.654;2023-05-25T03:44:07;96517.72;;;12.36;100.00
62510;BME280;48558;48.242;11.654;2023-05-25T03:48:22;96511.06;;;12.43;100.00
62510;BME280;48558;48.242;11.654;2023-05-25T03:52:44;96505.22;;;12.41;100.00
62510;BME280;48558;48.242;11.654;2023-05-25T03:57:07;96508.41;;;12.48;100.00
62510;BME280;48558;48.242;11.654;2023-05-25T04:01:19;96516.25;;;12.50;100.00
62510;BME280;48558;48.242;11.654;2023-05-25T04:05:32;96521.28;;;12.60;100.00
62510;BME280;48558;48.242;11.654;2023-05-25T04:09:45;96529.13;;;12.62;100.00
62510;BME280;48558;48.242;11.654;2023-05-25T04:13:57;96527.63;;;12.52;100.00
62510;BME280;48558;48.242;11.654;2023-05-25T04:18:11;96543.34;;;12.55;100.00
62510;BME280;48558;48.242;11.654;2023-05-25T04:22:24;96522.91;;;12.67;100.00
62510;BME280;48558;48.242;11.654;2023-05-25T04:26:37;96522.53;;;12.83;100.00
62510;BME280;48558;48.242;11.654;2023-05-25T04:30:53;96529.56;;;12.93;100.00
62510;BME280;48558;48.242;11.654;2023-05-25T04:35:08;96533.00;;;13.03;100.00
62510;BME280;48558;48.242;11.654;2023-05-25T04:39:20;96540.47;;;12.96;100.00
62510;BME280;48558;48.242;11.654;2023-05-25T04:43:33;96539.28;;;13.12;100.00
62510;BME280;48558;48.242;11.654;2023-05-25T04:47:45;96552.31;;;13.21;100.00
62510;BME280;48558;48.242;11.654;2023-05-25T04:51:58;96539.22;;;12.98;100.00
62510;BME280;48558;48.242;11.654;2023-05-25T04:56:10;96546.84;;;13.12;100.00
62510;BME280;48558;48.242;11.654;2023-05-25T05:00:23;96545.25;;;13.20;100.00
62510;BME280;48558;48.242;11.654;2023-05-25T05:04:36;96549.72;;;13.41;100.00
62510;BME280;48558;48.242;11.654;2023-05-25T05:08:51;96544.38;;;13.52;100.00
62510;BME280;48558;48.242;11.654;2023-05-25T05:13:05;96555.84;;;13.45;100.00
62510;BME280;48558;48.242;11.654;2023-05-25T05:17:17;96553.00;;;13.54;100.00
62510;BME280;48558;48.242;11.654;2023-05-25T05:21:30;96565.69;;;13.31;100.00
62510;BME280;48558;48.242;11.654;2023-05-25T05:25:51;96551.75;;;13.55;100.00
62510;BME280;48558;48.242;11.654;2023-05-25T05:30:13;96567.38;;;13.67;100.00
62510;BME280;48558;48.242;11.654;2023-05-25T05:34:26;96563.56;;;13.94;100.00
62510;BME280;48558;48.242;11.654;2023-05-25T05:38:38;96549.78;;;13.85;100.00
62510;BME280;48558;48.242;11.654;2023-05-25T05:43:00;96543.56;;;13.90;100.00
62510;BME280;48558;48.242;11.654;2023-05-25T05:47:13;96578.16;;;14.03;100.00
62510;BME280;48558;48.242;11.654;2023-05-25T05:51:25;96577.56;;;13.99;100.00
62510;BME280;48558;48.242;11.654;2023-05-25T05:55:38;96578.72;;;13.93;100.00
62510;BME280;48558;48.242;11.654;2023-05-25T06:00:00;96581.78;;;14.09;100.00
62510;BME280;48558;48.242;11.654;2023-05-25T06:04:17;96580.91;;;13.89;100.00
62510;BME280;48558;48.242;11.654;2023-05-25T06:08:30;96574.50;;;14.12;100.00
62510;BME280;48558;48.242;11.654;2023-05-25T06:12:42;96584.84;;;14.11;100.00
62510;BME280;48558;48.242;11.654;2023-05-25T06:16:55;96594.06;;;14.17;100.00
62510;BME280;48558;48.242;11.654;2023-05-25T06:21:07;96601.81;;;13.99;100.00
62510;BME280;48558;48.242;11.654;2023-05-25T06:25:23;96595.97;;;14.11;100.00
62510;BME280;48558;48.242;11.654;2023-05-25T06:29:45;96594.44;;;14.10;100.00
62510;BME280;48558;48.242;11.654;2023-05-25T06:34:08;96599.72;;;14.08;100.00
62510;BME280;48558;48.242;11.654;2023-05-25T06:38:21;96616.28;;;14.03;100.00
62510;BME280;48558;48.242;11.654;2023-05-25T06:42:35;96616.47;;;14.28;100.00
62510;BME280;48558;48.242;11.654;2023-05-25T06:46:48;96614.38;;;14.53;100.00
62510;BME280;48558;48.242;11.654;2023-05-25T06:51:01;96613.69;;;14.72;100.00
62510;BME280;48558;48.242;11.654;2023-05-25T06:55:14;96624.88;;;14.92;100.00
62510;BME280;48558;48.242;11.654;2023-05-25T06:59:27;96629.41;;;14.75;100.00
62510;BME280;48558;48.242;11.654;2023-05-25T07:03:39;96629.59;;;15.21;100.00
62510;BME280;48558;48.242;11.654;2023-05-25T07:07:52;96621.66;;;15.74;100.00
62510;BME280;48558;48.242;11.654;2023-05-25T07:12:05;96618.69;;;15.38;100.00
62510;BME280;48558;48.242;11.654;2023-05-25T07:16:27;96622.09;;;15.67;100.00
62510;BME280;48558;48.242;11.654;2023-05-25T07:20:40;96621.19;;;15.76;100.00
62510;BME280;48558;48.242;11.654;2023-05-25T07:24:53;96621.66;;;15.34;100.00
62510;BME280;48558;48.242;11.654;2023-05-25T07:29:05;96627.53;;;15.56;100.00
62510;BME280;48558;48.242;11.654;2023-05-25T07:33:18;96624.13;;;15.87;100.00
62510;BME280;48558;48.242;11.654;2023-05-25T07:37:30;96634.22;;;15.85;100.00
62510;BME280;48558;48.242;11.654;2023-05-25T07:41:43;96617.53;;;15.90;100.00
62510;BME280;48558;48.242;11.654;2023-05-25T07:45:55;96626.69;;;16.42;100.00
62510;BME280;48558;48.242;11.654;2023-05-25T07:50:09;96633.53;;;15.90;100.00
62510;BME280;48558;48.242;11.654;2023-05-25T07:54:21;96634.44;;;16.53;100.00
62510;BME280;48558;48.242;11.654;2023-05-25T07:58:34;96642.09;;;16.89;100.00
62510;BME280;48558;48.242;11.654;2023-05-25T08:02:46;96652.69;;;17.16;100.00
62510;BME280;48558;48.242;11.654;2023-05-25T08:07:00;96661.50;;;17.09;100.00
62510;BME280;48558;48.242;11.654;2023-05-25T08:11:14;96655.53;;;16.90;100.00
62510;BME280;48558;48.242;11.654;2023-05-25T08:15:28;96678.56;;;16.54;100.00
62510;BME280;48558;48.242;11.654;2023-05-25T08:19:40;96669.09;;;16.46;100.00
62510;BME280;48558;48.242;11.654;2023-05-25T08:23:53;96668.50;;;16.42;100.00
62510;BME280;48558;48.242;11.654;2023-05-25T08:28:07;96661.81;;;16.85;100.00
62510;BME280;48558;48.242;11.654;2023-05-25T08:32:19;96669.47;;;16.59;100.00
62510;BME280;48558;48.242;11.654;2023-05-25T08:36:32;96649.16;;;16.53;100.00
62510;BME280;48558;48.242;11.654;2023-05-25T08:40:54;96664.84;;;17.13;100.00
62510;BME280;48558;48.242;11.654;2023-05-25T08:45:14;96674.41;;;17.85;100.00
62510;BME280;48558;48.242;11.654;2023-05-25T08:49:43;96660.56;;;17.17;100.00
62510;BME280;48558;48.242;11.654;2023-05-25T08:54:00;96687.81;;;16.97;100.00
62510;BME280;48558;48.242;11.654;2023-05-25T08:58:32;96690.66;;;17.02;100.00
62510;BME280;48558;48.242;11.654;2023-05-25T09:02:59;96690.28;;;16.89;100.00
62510;BME280;48558;48.242;11.654;2023-05-25T09:07:18;96653.69;;;16.82;100.00
62510;BME280;48558;48.242;11.654;2023-05-25T09:11:33;96700.56;;;17.03;100.00
62510;BME280;48558;48.242;11.654;2023-05-25T09:15:51;96703.25;;;17.55;100.00
62510;BME280;48558;48.242;11.654;2023-05-25T09:20:05;96689.84;;;17.33;100.00
62510;BME280;48558;48.242;11.654;2023-05-25T09:24:18;96698.19;;;17.64;100.00
62510;BME280;48558;48.242;11.654;2023-05-25T09:28:33;96705.06;;;18.22;100.00
62510;BME280;48558;48.242;11.654;2023-05-25T09:32:46;96713.44;;;18.17;100.00
62510;BME280;48558;48.242;11.654;2023-05-25T09:36:59;96715.00;;;17.70;100.00
62510;BME280;48558;48.242;11.654;2023-05-25T09:41:14;96716.28;;;18.39;100.00
62510;BME280;48558;48.242;11.654;2023-05-25T09:45:27;96715.66;;;18.07;100.00
62510;BME280;48558;48.242;11.654;2023-05-25T09:49:40;96700.84;;;18.60;100.00
62510;BME280;48558;48.242;11.654;2023-05-25T09:54:04;96709.28;;;19.32;100.00
62510;BME280;48558;48.242;11.654;2023-05-25T09:58:25;96708.28;;;19.46;100.00
62510;BME280;48558;48.242;11.654;2023-05-25T10:02:40;96711.28;;;19.76;100.00
62510;BME280;48558;48.242;11.654;2023-05-25T10:06:53;96718.19;;;19.25;100.00
62510;BME280;48558;48.242;11.654;2023-05-25T10:11:08;96713.84;;;18.69;100.00
62510;BME280;48558;48.242;11.654;2023-05-25T10:15:22;96719.97;;;19.11;100.00
62510;BME280;48558;48.242;11.654;2023-05-25T10:19:37;96717.16;;;19.61;100.00
62510;BME280;48558;48.242;11.654;2023-05-25T10:24:00;96721.47;;;19.73;100.00
62510;BME280;48558;48.242;11.654;2023-05-25T10:28:21;96720.63;;;20.00;100.00
62510;BME280;48558;48.242;11.654;2023-05-25T10:32:39;96708.28;;;20.31;100.00
62510;BME280;48558;48.242;11.654;2023-05-25T10:36:54;96713.66;;;20.29;100.00
62510;BME280;48558;48.242;11.654;2023-05-25T10:41:19;96718.59;;;20.01;100.00
62510;BME280;48558;48.242;11.654;2023-05-25T10:45:33;96709.72;;;20.49;100.00
62510;BME280;48558;48.242;11.654;2023-05-25T10:49:57;96719.44;;;19.74;100.00
62510;BME280;48558;48.242;11.654;2023-05-25T10:54:12;96715.13;;;20.36;100.00
62510;BME280;48558;48.242;11.654;2023-05-25T10:58:27;96714.84;;;20.45;100.00
62510;BME280;48558;48.242;11.654;2023-05-25T11:02:51;96722.13;;;21.35;98.93
62510;BME280;48558;48.242;11.654;2023-05-25T11:07:08;96718.97;;;22.59;88.41
62510;BME280;48558;48.242;11.654;2023-05-25T11:20:31;96724.00;;;25.06;73.79
62510;BME280;48558;48.242;11.654;2023-05-25T11:24:51;96711.78;;;24.77;74.51
62510;BME280;48558;48.242;11.654;2023-05-25T11:29:12;96702.97;;;23.94;69.07
62510;BME280;48558;48.242;11.654;2023-05-25T11:33:26;96692.25;;;25.00;65.78
62510;BME280;48558;48.242;11.654;2023-05-25T11:37:39;96695.69;;;26.60;58.67
62510;BME280;48558;48.242;11.654;2023-05-25T11:41:54;96690.13;;;26.75;61.70
62510;BME280;48558;48.242;11.654;2023-05-25T11:46:08;96691.22;;;26.72;60.87
62510;BME280;48558;48.242;11.654;2023-05-25T11:50:21;96690.91;;;25.83;66.36
62510;BME280;48558;48.242;11.654;2023-05-25T11:54:34;96686.69;;;25.69;67.58
62510;BME280;48558;48.242;11.654;2023-05-25T11:58:48;96680.63;;;26.72;54.35
62510;BME280;48558;48.242;11.654;2023-05-25T12:03:02;96682.84;;;26.59;59.04
62510;BME280;48558;48.242;11.654;2023-05-25T12:07:25;96665.41;;;26.47;57.76
62510;BME280;48558;48.242;11.654;2023-05-25T12:11:38;96681.41;;;26.37;62.30
62510;BME280;48558;48.242;11.654;2023-05-25T12:15:54;96664.22;;;25.99;54.72
62510;BME280;48558;48.242;11.654;2023-05-25T12:20:10;96665.38;;;26.90;53.14
62510;BME280;48558;48.242;11.654;2023-05-25T12:24:23;96667.13;;;27.24;57.96
62510;BME280;48558;48.242;11.654;2023-05-25T12:28:36;96673.03;;;25.88;55.79
62510;BME280;48558;48.242;11.654;2023-05-25T12:33:00;96665.66;;;27.68;56.29
62510;BME280;48558;48.242;11.654;2023-05-25T12:37:21;96663.06;;;28.32;49.04
62510;BME280;48558;48.242;11.654;2023-05-25T12:41:50;96665.44;;;27.28;53.80
62510;BME280;48558;48.242;11.654;2023-05-25T12:46:05;96668.44;;;27.00;63.93
62510;BME280;48558;48.242;11.654;2023-05-25T12:50:18;96656.75;;;27.64;53.11
62510;BME280;48558;48.242;11.654;2023-05-25T12:58:55;96656.41;;;26.64;55.16
62510;BME280;48558;48.242;11.654;2023-05-25T13:03:08;96656.03;;;24.77;62.88
62510;BME280;48558;48.242;11.654;2023-05-25T13:07:21;96651.19;;;26.83;57.29
62510;BME280;48558;48.242;11.654;2023-05-25T13:11:33;96637.88;;;26.63;57.29
62510;BME280;48558;48.242;11.654;2023-05-25T13:15:46;96635.13;;;26.85;60.67
62510;BME280;48558;48.242;11.654;2023-05-25T13:19:59;96640.28;;;25.51;70.54
62510;BME280;48558;48.242;11.654;2023-05-25T13:24:11;96638.28;;;25.88;58.06
62510;BME280;48558;48.242;11.654;2023-05-25T13:28:24;96636.31;;;25.75;60.34
62510;BME280;48558;48.242;11.654;2023-05-25T13:32:37;96626.47;;;27.74;54.00
62510;BME280;48558;48.242;11.654;2023-05-25T13:36:50;96630.81;;;25.70;65.92
62510;BME280;48558;48.242;11.654;2023-05-25T13:41:03;96635.00;;;26.55;58.50
62510;BME280;48558;48.242;11.654;2023-05-25T13:45:15;96595.66;;;25.57;62.83
62510;BME280;48558;48.242;11.654;2023-05-25T13:49:28;96629.38;;;26.63;59.78
62510;BME280;48558;48.242;11.654;2023-05-25T13:53:42;96615.63;;;25.88;57.09
62510;BME280;48558;48.242;11.654;2023-05-25T13:57:55;96615.50;;;28.33;52.61
62510;BME280;48558;48.242;11.654;2023-05-25T14:02:07;96620.22;;;28.38;52.41
62510;BME280;48558;48.242;11.654;2023-05-25T14:06:24;96625.97;;;28.23;51.15
62510;BME280;48558;48.242;11.654;2023-05-25T14:10:37;96616.75;;;27.92;53.24
62510;BME280;48558;48.242;11.654;2023-05-25T14:14:50;96605.81;;;25.89;55.97
62510;BME280;48558;48.242;11.654;2023-05-25T14:19:03;96613.34;;;26.22;59.69
62510;BME280;48558;48.242;11.654;2023-05-25T14:23:23;96610.41;;;27.54;51.22
62510;BME280;48558;48.242;11.654;2023-05-25T14:27:35;96610.00;;;27.35;55.31
62510;BME280;48558;48.242;11.654;2023-05-25T14:31:48;96602.19;;;28.83;51.25
62510;BME280;48558;48.242;11.654;2023-05-25T14:36:00;96617.47;;;26.72;49.63
62510;BME280;48558;48.242;11.654;2023-05-25T14:40:13;96604.09;;;27.78;51.16
62510;BME280;48558;48.242;11.654;2023-05-25T14:44:25;96593.66;;;27.88;48.02
62510;BME280;48558;48.242;11.654;2023-05-25T14:48:38;96603.28;;;28.48;44.42
62510;BME280;48558;48.242;11.654;2023-05-25T14:52:51;96605.47;;;27.17;53.69
62510;BME280;48558;48.242;11.654;2023-05-25T14:57:09;96603.94;;;29.03;43.20
62510;BME280;48558;48.242;11.654;2023-05-25T15:01:23;96605.06;;;27.28;47.95
62510;BME280;48558;48.242;11.654;2023-05-25T15:05:36;96602.38;;;29.09;43.70
62510;BME280;48558;48.242;11.654;2023-05-25T15:09:48;96600.63;;;28.17;46.60
62510;BME280;48558;48.242;11.654;2023-05-25T15:14:01;96601.34;;;26.37;52.20
62510;BME280;48558;48.242;11.654;2023-05-25T15:18:13;96607.59;;;26.07;55.05
62510;BME280;48558;48.242;11.654;2023-05-25T15:22:26;96593.09;;;27.82;48.75
62510;BME280;48558;48.242;11.654;2023-05-25T15:26:38;96600.88;;;27.82;46.63
62510;BME280;48558;48.242;11.654;2023-05-25T15:30:51;96599.34;;;25.81;51.84
62510;BME280;48558;48.242;11.654;2023-05-25T15:35:04;96602.81;;;24.55;62.71
62510;BME280;48558;48.242;11.654;2023-05-25T15:39:17;96604.47;;;24.17;66.00
62510;BME280;48558;48.242;11.654;2023-05-25T15:43:29;96590.31;;;27.14;50.81
62510;BME280;48558;48.242;11.654;2023-05-25T15:47:42;96587.13;;;28.58;47.09
62510;BME280;48558;48.242;11.654;2023-05-25T15:51:54;96594.06;;;28.00;43.97
62510;BME280;48558;48.242;11.654;2023-05-25T15:56:07;96595.22;;;26.83;50.68
62510;BME280;48558;48.242;11.654;2023-05-25T16:00:19;96583.41;;;28.08;46.26
62510;BME280;48558;48.242;11.654;2023-05-25T16:04:32;96595.00;;;30.24;40.24
62510;BME280;48558;48.242;11.654;2023-05-25T16:08:45;96596.69;;;26.69;46.06
62510;BME280;48558;48.242;11.654;2023-05-25T16:12:57;96589.53;;;24.30;57.54
62510;BME280;48558;48.242;11.654;2023-05-25T16:17:10;96587.88;;;23.48;63.09
62510;BME280;48558;48.242;11.654;2023-05-25T16:21:22;96593.84;;;24.10;66.08
62510;BME280;48558;48.242;11.654;2023-05-25T16:25:45;96584.84;;;27.09;48.17
62510;BME280;48558;48.242;11.654;2023-05-25T16:29:57;96604.22;;;28.10;47.02
62510;BME280;48558;48.242;11.654;2023-05-25T16:34:10;96596.03;;;25.13;53.33
62510;BME280;48558;48.242;11.654;2023-05-25T16:38:22;96602.00;;;22.90;62.33
62510;BME280;48558;48.242;11.654;2023-05-25T16:42:45;96599.59;;;23.91;62.99
62510;BME280;48558;48.242;11.654;2023-05-25T16:46:57;96604.69;;;25.92;52.15
62510;BME280;48558;48.242;11.654;2023-05-25T16:51:10;96585.44;;;25.54;49.37
62510;BME280;48558;48.242;11.654;2023-05-25T16:55:26;96605.34;;;25.21;51.53
62510;BME280;48558;48.242;11.654;2023-05-25T16:59:38;96605.53;;;25.43;51.13
62510;BME280;48558;48.242;11.654;2023-05-25T17:03:52;96607.53;;;24.73;53.40
62510;BME280;48558;48.242;11.654;2023-05-25T17:08:04;96600.88;;;24.84;54.39
62510;BME280;48558;48.242;11.654;2023-05-25T17:12:17;96605.84;;;25.12;53.89
62510;BME280;48558;48.242;11.654;2023-05-25T17:16:29;96606.31;;;25.23;56.13
62510;BME280;48558;48.242;11.654;2023-05-25T17:20:52;96609.84;;;24.96;53.70
62510;BME280;48558;48.242;11.654;2023-05-25T17:25:05;96597.00;;;24.94;55.78
62510;BME280;48558;48.242;11.654;2023-05-25T17:29:29;96601.47;;;25.88;50.38
62510;BME280;48558;48.242;11.654;2023-05-25T17:33:43;96600.72;;;26.23;48.78
62510;BME280;48558;48.242;11.654;2023-05-25T17:37:55;96596.34;;;25.50;52.53
62510;BME280;48558;48.242;11.654;2023-05-25T17:42:08;96599.59;;;25.34;51.88
62510;BME280;48558;48.242;11.654;2023-05-25T17:46:20;96599.84;;;23.67;57.22
62510;BME280;48558;48.242;11.654;2023-05-25T17:50:34;96611.81;;;23.15;60.22
62510;BME280;48558;48.242;11.654;2023-05-25T17:54:46;96607.13;;;22.73;66.51
62510;BME280;48558;48.242;11.654;2023-05-25T17:59:09;96607.41;;;22.00;67.95
62510;BME280;48558;48.242;11.654;2023-05-25T18:03:22;96618.25;;;21.48;71.06
62510;BME280;48558;48.242;11.654;2023-05-25T18:07:37;96605.59;;;21.36;73.14
62510;BME280;48558;48.242;11.654;2023-05-25T18:11:49;96612.78;;;21.07;76.71
62510;BME280;48558;48.242;11.654;2023-05-25T18:16:05;96598.63;;;20.59;86.63
62510;BME280;48558;48.242;11.654;2023-05-25T18:20:18;96618.56;;;20.55;84.70
62510;BME280;48558;48.242;11.654;2023-05-25T18:24:31;96621.25;;;20.37;84.77
62510;BME280;48558;48.242;11.654;2023-05-25T18:28:43;96620.13;;;20.04;93.10
62510;BME280;48558;48.242;11.654;2023-05-25T18:32:56;96620.09;;;19.58;97.61
62510;BME280;48558;48.242;11.654;2023-05-25T18:37:09;96630.53;;;19.52;100.00
62510;BME280;48558;48.242;11.654;2023-05-25T18:41:21;96627.56;;;19.06;100.00
62510;BME280;48558;48.242;11.654;2023-05-25T18:45:35;96629.09;;;19.01;100.00
62510;BME280;48558;48.242;11.654;2023-05-25T18:49:48;96630.09;;;18.71;100.00
62510;BME280;48558;48.242;11.654;2023-05-25T18:54:00;96638.47;;;18.37;100.00
62510;BME280;48558;48.242;11.654;2023-05-25T18:58:19;96632.53;;;18.02;100.00
62510;BME280;48558;48.242;11.654;2023-05-25T19:02:31;96631.75;;;17.96;100.00
62510;BME280;48558;48.242;11.654;2023-05-25T19:06:44;96643.41;;;17.83;100.00
62510;BME280;48558;48.242;11.654;2023-05-25T19:10:57;96637.50;;;17.70;100.00
62510;BME280;48558;48.242;11.654;2023-05-25T19:15:10;96658.00;;;17.56;100.00
62510;BME280;48558;48.242;11.654;2023-05-25T19:19:32;96669.06;;;17.40;100.00
62510;BME280;48558;48.242;11.654;2023-05-25T19:23:45;96651.94;;;17.21;100.00
62510;BME280;48558;48.242;11.654;2023-05-25T19:27:57;96668.25;;;16.91;100.00
62510;BME280;48558;48.242;11.654;2023-05-25T19:32:11;96668.50;;;16.62;100.00
62510;BME280;48558;48.242;11.654;2023-05-25T19:36:31;96677.72;;;16.48;100.00
62510;BME280;48558;48.242;11.654;2023-05-25T19:40:52;96684.44;;;16.36;100.00
62510;BME280;48558;48.242;11.654;2023-05-25T19:45:05;96685.72;;;16.15;100.00
62510;BME280;48558;48.242;11.654;2023-05-25T19:49:28;96693.91;;;15.98;100.00
62510;BME280;48558;48.242;11.654;2023-05-25T19:53:50;96674.88;;;15.76;100.00
62510;BME280;48558;48.242;11.654;2023-05-25T19:58:03;96702.16;;;15.87;100.00
62510;BME280;48558;48.242;11.654;2023-05-25T20:02:16;96709.50;;;15.90;100.00
62510;BME280;48558;48.242;11.654;2023-05-25T20:06:28;96710.78;;;15.89;100.00
62510;BME280;48558;48.242;11.654;2023-05-25T20:10:41;96711.59;;;15.95;100.00
62510;BME280;48558;48.242;11.654;2023-05-25T20:14:55;96716.34;;;16.09;100.00
62510;BME280;48558;48.242;11.654;2023-05-25T20:19:18;96725.09;;;16.22;100.00
62510;BME280;48558;48.242;11.654;2023-05-25T20:23:32;96715.97;;;16.22;100.00
62510;BME280;48558;48.242;11.654;2023-05-25T20:27:55;96695.09;;;16.12;100.00
62510;BME280;48558;48.242;11.654;2023-05-25T20:32:08;96717.53;;;16.23;100.00
62510;BME280;48558;48.242;11.654;2023-05-25T20:36:20;96731.53;;;16.08;100.00
62510;BME280;48558;48.242;11.654;2023-05-25T20:40:33;96728.69;;;15.83;100.00
62510;BME280;48558;48.242;11.654;2023-05-25T20:44:45;96727.22;;;15.67;100.00
62510;BME280;48558;48.242;11.654;2023-05-25T20:48:58;96722.19;;;15.36;100.00
62510;BME280;48558;48.242;11.654;2023-05-25T20:53:10;96731.66;;;15.09;100.00
62510;BME280;48558;48.242;11.654;2023-05-25T20:57:24;96727.91;;;14.98;100.00
62510;BME280;48558;48.242;11.654;2023-05-25T21:01:36;96732.63;;;14.92;100.00
62510;BME280;48558;48.242;11.654;2023-05-25T21:05:49;96734.94;;;14.79;100.00
62510;BME280;48558;48.242;11.654;2023-05-25T21:10:02;96744.13;;;14.56;100.00
62510;BME280;48558;48.242;11.654;2023-05-25T21:14:15;96737.84;;;14.31;100.00
62510;BME280;48558;48.242;11.654;2023-05-25T21:18:27;96733.56;;;14.07;100.00
62510;BME280;48558;48.242;11.654;2023-05-25T21:22:40;96746.16;;;13.93;100.00
62510;BME280;48558;48.242;11.654;2023-05-25T21:26:53;96738.84;;;13.81;100.00
62510;BME280;48558;48.242;11.654;2023-05-25T21:31:05;96748.13;;;13.78;100.00
62510;BME280;48558;48.242;11.654;2023-05-25T21:35:18;96754.69;;;13.66;100.00
62510;BME280;48558;48.242;11.654;2023-05-25T21:39:30;96742.00;;;13.74;100.00
62510;BME280;48558;48.242;11.654;2023-05-25T21:43:43;96751.22;;;13.56;100.00
62510;BME280;48558;48.242;11.654;2023-05-25T21:47:56;96745.41;;;13.45;100.00
62510;BME280;48558;48.242;11.654;2023-05-25T21:52:09;96753.94;;;13.33;100.00
62510;BME280;48558;48.242;11.654;2023-05-25T21:56:31;96750.03;;;13.16;100.00
62510;BME280;48558;48.242;11.654;2023-05-25T22:00:44;96748.94;;;13.04;100.00
62510;BME280;48558;48.242;11.654;2023-05-25T22:05:06;96760.69;;;12.90;100.00
62510;BME280;48558;48.242;11.654;2023-05-25T22:09:19;96757.81;;;12.84;100.00
62510;BME280;48558;48.242;11.654;2023-05-25T22:13:32;96754.88;;;12.79;100.00
62510;BME280;48558;48.242;11.654;2023-05-25T22:17:44;96748.56;;;12.78;100.00
62510;BME280;48558;48.242;11.654;2023-05-25T22:21:57;96725.97;;;12.62;100.00